Time;durP1;ratioP1;P1;durP2;ratioP2;P2;SDS_P1;SDS_P2;PMS_P1;PMS_P2;Temp;Humidity;BMP_temperature;BMP_pressure;BME280_temperature;BME280_humidity;BME280_pressure;Samples;Min_cycle;Max_cycle;Signal;HPM_P1;HPM_P2
2023/11/29 00:01:15;;;;;;;11.20;8.40;;;3.60;99.90;;;;;;4991249;28;20842;-65
2023/11/29 00:03:40;;;;;;;10.90;7.47;;;3.70;99.90;;;;;;4993363;28;20691;-68
2023/11/29 00:06:06;;;;;;;11.47;8.03;;;3.50;99.90;;;;;;4990371;28;20188;-73
2023/11/29 00:08:32;;;;;;;9.73;6.87;;;3.50;99.90;;;;;;4994726;28;20274;-70
2023/11/29 00:10:57;;;;;;;10.70;7.60;;;3.60;99.90;;;;;;4990333;28;20194;-69
2023/11/29 00:13:23;;;;;;;11.13;7.00;;;3.60;99.90;;;;;;4987318;28;20591;-64
2023/11/29 00:15:49;;;;;;;10.33;7.67;;;3.60;99.90;;;;;;4988576;28;20203;-69
2023/11/29 00:18:16;;;;;;;9.50;7.63;;;3.60;99.90;;;;;;4987546;28;20391;-64
2023/11/29 00:20:42;;;;;;;13.03;7.10;;;3.70;99.90;;;;;;4988265;28;20434;-69
2023/11/29 00:23:08;;;;;;;11.37;8.10;;;3.70;99.90;;;;;;4987833;28;20430;-67
2023/11/29 00:25:34;;;;;;;10.00;7.97;;;3.70;99.90;;;;;;4986862;28;20494;-70
2023/11/29 00:28:00;;;;;;;10.70;7.20;;;3.70;99.90;;;;;;4988477;28;20461;-67
2023/11/29 00:30:28;;;;;;;9.33;6.60;;;3.80;99.90;;;;;;4988437;28;20184;-71
2023/11/29 00:32:54;;;;;;;10.67;7.70;;;3.70;99.90;;;;;;4987198;28;20712;-62
2023/11/29 00:35:20;;;;;;;10.90;6.77;;;3.70;99.90;;;;;;4987577;28;20928;-69
2023/11/29 00:37:46;;;;;;;11.40;6.30;;;3.60;99.90;;;;;;4990099;28;20532;-67
2023/11/29 00:40:11;;;;;;;12.10;7.70;;;3.60;99.90;;;;;;4988855;28;20196;-70
2023/11/29 00:42:37;;;;;;;9.87;6.93;;;3.60;99.90;;;;;;4990282;28;20226;-66
2023/11/29 00:45:03;;;;;;;10.10;6.80;;;3.50;99.90;;;;;;4989786;28;20275;-67
2023/11/29 00:47:29;;;;;;;11.00;6.97;;;3.40;99.90;;;;;;4991142;28;20262;-71
2023/11/29 00:49:55;;;;;;;14.20;6.90;;;3.40;99.90;;;;;;4989066;28;20433;-67
2023/11/29 00:52:20;;;;;;;9.70;6.80;;;3.40;99.90;;;;;;4990774;28;20816;-68
2023/11/29 00:54:46;;;;;;;7.57;5.93;;;3.40;99.90;;;;;;4989596;28;20243;-69
2023/11/29 00:57:12;;;;;;;9.73;6.40;;;3.50;99.90;;;;;;4990334;28;20919;-70
2023/11/29 00:59:37;;;;;;;6.60;5.50;;;3.60;99.90;;;;;;4990664;28;20653;-63
2023/11/29 01:02:03;;;;;;;8.70;6.03;;;3.60;99.90;;;;;;4988890;28;20799;-67
2023/11/29 01:04:29;;;;;;;9.10;6.27;;;3.60;99.90;;;;;;4990630;28;20219;-72
2023/11/29 01:06:54;;;;;;;7.90;5.90;;;3.50;99.90;;;;;;4989307;28;20430;-67
2023/11/29 01:09:20;;;;;;;7.50;6.07;;;3.50;99.90;;;;;;4990911;28;20199;-69
2023/11/29 01:11:46;;;;;;;9.60;6.33;;;3.40;99.90;;;;;;4990002;28;20194;-70
2023/11/29 01:14:12;;;;;;;8.37;6.80;;;3.30;99.90;;;;;;4989668;28;20716;-70
2023/11/29 01:16:38;;;;;;;7.90;5.70;;;3.20;99.90;;;;;;4989136;28;20434;-65
2023/11/29 01:19:04;;;;;;;9.43;5.50;;;3.20;99.90;;;;;;4988855;28;20502;-68
2023/11/29 01:21:29;;;;;;;8.27;6.53;;;3.20;99.90;;;;;;4991098;28;21631;-66
2023/11/29 01:23:55;;;;;;;8.73;6.50;;;3.20;99.90;;;;;;4988278;28;20519;-67
2023/11/29 01:26:21;;;;;;;10.20;6.63;;;3.20;99.90;;;;;;4990496;28;20187;-66
2023/11/29 01:28:46;;;;;;;7.57;6.00;;;3.20;99.90;;;;;;4990165;28;20191;-67
2023/11/29 01:31:12;;;;;;;8.23;5.70;;;3.20;99.90;;;;;;4991168;28;20195;-68
2023/11/29 01:33:40;;;;;;;8.70;5.83;;;3.30;99.90;;;;;;4989956;28;20195;-66
2023/11/29 01:36:07;;;;;;;9.03;6.77;;;3.20;99.90;;;;;;4989344;28;20422;-70
2023/11/29 01:38:32;;;;;;;8.67;5.80;;;3.10;99.90;;;;;;4989605;28;20430;-69
2023/11/29 01:40:58;;;;;;;11.27;5.67;;;3.10;99.90;;;;;;4990936;28;21524;-67
2023/11/29 01:43:24;;;;;;;7.53;6.50;;;3.10;99.90;;;;;;4990473;28;20257;-69
2023/11/29 01:45:50;;;;;;;10.87;6.33;;;3.00;99.90;;;;;;4990489;28;20219;-70
2023/11/29 01:48:17;;;;;;;8.13;6.70;;;3.00;99.90;;;;;;4989753;28;20252;-73
2023/11/29 01:50:45;;;;;;;7.80;5.87;;;3.10;99.90;;;;;;4990555;28;20432;-69
2023/11/29 01:53:14;;;;;;;8.27;5.70;;;3.20;99.90;;;;;;4989484;28;20492;-69
2023/11/29 01:55:42;;;;;;;8.33;6.37;;;3.20;99.90;;;;;;4991493;28;20483;-66
2023/11/29 01:58:08;;;;;;;9.10;6.00;;;3.20;99.90;;;;;;4991007;28;20430;-64
2023/11/29 02:00:34;;;;;;;8.63;6.33;;;3.20;99.90;;;;;;4989722;28;21000;-67
2023/11/29 02:02:59;;;;;;;7.63;5.20;;;3.10;99.90;;;;;;4988975;28;20202;-65
2023/11/29 02:05:26;;;;;;;8.13;6.43;;;3.10;99.90;;;;;;4990036;28;20465;-70
2023/11/29 02:07:51;;;;;;;6.80;5.63;;;3.00;99.90;;;;;;4989966;28;20180;-69
2023/11/29 02:10:17;;;;;;;7.00;5.30;;;3.00;99.90;;;;;;4991051;28;20970;-66
2023/11/29 02:12:43;;;;;;;10.50;6.40;;;3.10;99.90;;;;;;4990938;28;20209;-68
2023/11/29 02:15:09;;;;;;;8.73;6.70;;;3.00;99.90;;;;;;4991115;28;20686;-69
2023/11/29 02:17:35;;;;;;;10.37;6.20;;;3.00;99.90;;;;;;4990106;28;21035;-65
2023/11/29 02:20:01;;;;;;;9.23;6.17;;;3.00;99.90;;;;;;4990439;28;20435;-70
2023/11/29 02:22:27;;;;;;;9.50;6.40;;;3.00;99.90;;;;;;4992269;28;20202;-71
2023/11/29 02:24:53;;;;;;;10.40;6.20;;;3.00;99.90;;;;;;4991227;28;20220;-68
2023/11/29 02:27:20;;;;;;;8.50;5.47;;;2.90;99.90;;;;;;4991410;28;20426;-69
2023/11/29 02:29:46;;;;;;;8.10;6.10;;;2.80;99.90;;;;;;4990888;28;20449;-64
2023/11/29 02:32:12;;;;;;;9.27;6.80;;;2.80;99.90;;;;;;4991909;28;20423;-66
2023/11/29 02:34:37;;;;;;;11.30;6.40;;;2.90;99.90;;;;;;4990650;28;20575;-68
2023/11/29 02:37:04;;;;;;;8.67;6.60;;;2.80;99.90;;;;;;4990388;28;20188;-64
2023/11/29 02:39:30;;;;;;;7.53;6.20;;;2.90;99.90;;;;;;4989427;28;20598;-67
2023/11/29 02:41:56;;;;;;;11.33;6.90;;;3.00;99.90;;;;;;4989869;28;20426;-65
2023/11/29 02:44:22;;;;;;;12.17;7.47;;;2.80;99.90;;;;;;4990570;28;20477;-73
2023/11/29 02:46:48;;;;;;;11.10;7.43;;;3.00;99.90;;;;;;4990815;28;20426;-69
2023/11/29 02:49:13;;;;;;;10.17;6.10;;;2.90;99.90;;;;;;4991231;28;20423;-73
2023/11/29 02:51:39;;;;;;;9.93;6.80;;;3.00;99.90;;;;;;4991324;28;20239;-67
2023/11/29 02:54:05;;;;;;;9.10;7.13;;;2.90;99.90;;;;;;4989659;28;20184;-71
2023/11/29 02:56:30;;;;;;;11.73;6.93;;;2.80;99.90;;;;;;4991441;28;20195;-73
2023/11/29 02:58:56;;;;;;;10.13;7.03;;;2.80;99.90;;;;;;4989782;28;20273;-71
2023/11/29 03:01:22;;;;;;;12.27;7.40;;;2.70;99.90;;;;;;4991991;28;20188;-73
2023/11/29 03:03:47;;;;;;;9.53;6.83;;;2.70;99.90;;;;;;4990963;28;20771;-69
2023/11/29 03:06:13;;;;;;;9.40;7.10;;;2.70;99.90;;;;;;4990811;28;20723;-70
2023/11/29 03:08:38;;;;;;;12.23;6.90;;;2.70;99.90;;;;;;4992598;28;20190;-69
2023/11/29 03:11:04;;;;;;;11.70;7.07;;;2.70;99.90;;;;;;4990311;28;20187;-68
2023/11/29 03:13:30;;;;;;;8.83;6.87;;;2.80;99.90;;;;;;4991571;28;20633;-71
2023/11/29 03:15:56;;;;;;;12.97;7.33;;;2.80;99.90;;;;;;4989289;28;20946;-71
2023/11/29 03:18:21;;;;;;;11.37;7.93;;;2.90;99.90;;;;;;4991364;28;20191;-67
2023/11/29 03:20:47;;;;;;;10.20;7.30;;;2.90;99.90;;;;;;4991269;28;20190;-70
2023/11/29 03:23:13;;;;;;;10.03;6.77;;;3.00;99.90;;;;;;4991424;28;21131;-73
2023/11/29 03:25:38;;;;;;;10.50;7.53;;;3.00;99.90;;;;;;4990971;28;20219;-72
2023/11/29 03:28:04;;;;;;;9.17;6.77;;;3.00;99.90;;;;;;4991158;28;20183;-68
2023/11/29 03:30:30;;;;;;;11.00;7.67;;;3.00;99.90;;;;;;4992000;28;20219;-70
2023/11/29 03:32:56;;;;;;;12.20;8.07;;;2.90;99.90;;;;;;4992186;28;20450;-71
2023/11/29 03:35:22;;;;;;;11.00;6.80;;;2.80;99.90;;;;;;4994921;28;20431;-70
2023/11/29 03:37:48;;;;;;;10.40;7.73;;;2.70;99.90;;;;;;4994922;28;20183;-68
2023/11/29 03:40:13;;;;;;;10.07;7.83;;;2.80;99.90;;;;;;4992887;28;20242;-66
2023/11/29 03:42:39;;;;;;;12.23;8.13;;;2.80;99.90;;;;;;4994600;28;20434;-68
2023/11/29 03:45:06;;;;;;;13.80;8.47;;;2.80;99.90;;;;;;4994322;28;20255;-68
2023/11/29 03:47:32;;;;;;;12.77;7.90;;;2.70;99.90;;;;;;4993254;28;20629;-67
2023/11/29 03:49:57;;;;;;;9.20;7.00;;;2.80;99.90;;;;;;4994939;28;20421;-67
2023/11/29 03:52:24;;;;;;;11.63;7.40;;;2.90;99.90;;;;;;4995884;28;20191;-69
2023/11/29 03:54:51;;;;;;;9.20;6.73;;;3.00;99.90;;;;;;4994134;28;20863;-70
2023/11/29 03:57:17;;;;;;;10.07;7.27;;;2.90;99.90;;;;;;4994950;28;20434;-70
2023/11/29 03:59:42;;;;;;;9.80;7.37;;;2.90;99.90;;;;;;4994901;28;20442;-70
2023/11/29 04:02:08;;;;;;;10.43;6.90;;;2.90;99.90;;;;;;4994232;28;20430;-71
2023/11/29 04:04:34;;;;;;;11.13;7.03;;;3.00;99.90;;;;;;4992066;28;20216;-68
2023/11/29 04:07:03;;;;;;;11.00;8.07;;;3.00;99.90;;;;;;4993354;28;20193;-71
2023/11/29 04:09:29;;;;;;;11.47;7.47;;;3.00;99.90;;;;;;4995102;28;20176;-69
2023/11/29 04:11:55;;;;;;;10.53;7.30;;;3.10;99.90;;;;;;4994678;28;20422;-70
2023/11/29 04:14:20;;;;;;;10.87;7.87;;;3.20;99.90;;;;;;4995072;28;20197;-71
2023/11/29 04:16:46;;;;;;;12.93;8.27;;;3.10;99.90;;;;;;4994051;28;20180;-68
2023/11/29 04:19:12;;;;;;;11.37;8.30;;;3.10;99.90;;;;;;4995083;28;20191;-66
2023/11/29 04:21:37;;;;;;;12.83;7.30;;;3.00;99.90;;;;;;4994497;28;20187;-68
2023/11/29 04:24:04;;;;;;;10.53;7.83;;;3.00;99.90;;;;;;4993877;28;20223;-66
2023/11/29 04:26:33;;;;;;;10.93;7.70;;;3.10;99.90;;;;;;4993387;28;20560;-67
2023/11/29 04:29:01;;;;;;;12.50;7.63;;;3.00;99.90;;;;;;4995507;28;20473;-70
2023/11/29 04:31:30;;;;;;;15.57;9.60;;;3.00;99.90;;;;;;4995323;28;20426;-67
2023/11/29 04:33:56;;;;;;;10.30;7.27;;;2.90;99.90;;;;;;4993152;28;20972;-70
2023/11/29 04:36:21;;;;;;;10.23;7.07;;;2.90;99.90;;;;;;4996388;28;20541;-67
2023/11/29 04:38:48;;;;;;;10.13;6.63;;;2.80;99.90;;;;;;4992514;28;21021;-69
2023/11/29 04:41:16;;;;;;;13.73;8.00;;;2.90;99.90;;;;;;4995932;28;20191;-65
2023/11/29 04:43:46;;;;;;;11.03;7.37;;;2.90;99.90;;;;;;4992558;28;20522;-69
2023/11/29 04:46:12;;;;;;;9.10;7.30;;;2.90;99.90;;;;;;4996001;28;20536;-66
2023/11/29 04:48:38;;;;;;;11.90;7.70;;;2.90;99.90;;;;;;4993902;28;20418;-68
2023/11/29 04:51:04;;;;;;;9.67;7.43;;;2.90;99.90;;;;;;4994971;28;20546;-67
2023/11/29 04:53:30;;;;;;;10.83;8.37;;;2.90;99.90;;;;;;4977665;28;20436;-68
2023/11/29 04:55:56;;;;;;;11.77;8.10;;;2.90;99.90;;;;;;4994200;28;20243;-67
2023/11/29 04:58:25;;;;;;;10.57;7.90;;;2.80;99.90;;;;;;4995686;28;20583;-69
2023/11/29 05:00:53;;;;;;;10.87;7.40;;;2.80;99.90;;;;;;4993088;28;20433;-70
2023/11/29 05:03:19;;;;;;;11.20;7.70;;;2.90;99.90;;;;;;4996423;28;20434;-68
2023/11/29 05:05:45;;;;;;;11.60;7.73;;;3.00;99.90;;;;;;4994434;28;20968;-72
2023/11/29 05:08:11;;;;;;;11.30;7.70;;;3.00;99.90;;;;;;4980370;28;20426;-67
2023/11/29 05:10:40;;;;;;;12.27;8.00;;;3.00;99.90;;;;;;4995889;28;20530;-67
2023/11/29 05:13:06;;;;;;;10.10;7.47;;;2.80;99.90;;;;;;4995467;28;20462;-68
2023/11/29 05:15:34;;;;;;;11.10;8.07;;;2.80;99.90;;;;;;4994515;28;20430;-68
2023/11/29 05:18:03;;;;;;;12.83;7.53;;;2.80;99.90;;;;;;4995064;28;20430;-71
2023/11/29 05:20:29;;;;;;;10.20;7.50;;;2.80;99.90;;;;;;4996899;28;20422;-71
2023/11/29 05:22:55;;;;;;;10.37;8.30;;;2.80;99.90;;;;;;4992249;28;20438;-68
2023/11/29 05:25:20;;;;;;;11.43;8.00;;;2.80;99.90;;;;;;4996484;28;20223;-69
2023/11/29 05:27:47;;;;;;;12.07;7.97;;;2.80;99.90;;;;;;4994475;28;20191;-68
2023/11/29 05:30:13;;;;;;;11.63;7.70;;;2.90;99.90;;;;;;4997916;28;20239;-66
2023/11/29 05:32:39;;;;;;;10.40;7.40;;;2.90;99.90;;;;;;4993290;28;21180;-68
2023/11/29 05:35:05;;;;;;;9.00;7.00;;;2.80;99.90;;;;;;4994844;28;20442;-66
2023/11/29 05:37:30;;;;;;;12.70;8.07;;;2.80;99.90;;;;;;4995194;28;20199;-67
2023/11/29 05:39:56;;;;;;;12.77;7.97;;;2.80;99.90;;;;;;4994012;28;20497;-70
2023/11/29 05:42:23;;;;;;;8.70;6.70;;;2.80;99.90;;;;;;4994672;28;20176;-71
2023/11/29 05:44:49;;;;;;;9.40;6.70;;;2.80;99.90;;;;;;4993472;28;20589;-68
2023/11/29 05:47:16;;;;;;;9.23;6.97;;;2.70;99.90;;;;;;4992563;28;20441;-72
2023/11/29 05:49:42;;;;;;;11.63;7.20;;;2.80;99.90;;;;;;4983831;28;20453;-73
2023/11/29 05:52:07;;;;;;;9.80;7.37;;;2.80;99.90;;;;;;4983651;28;20441;-73
2023/11/29 05:54:33;;;;;;;11.80;8.47;;;2.80;99.90;;;;;;4984695;28;20894;-71
2023/11/29 05:56:59;;;;;;;11.83;8.00;;;2.80;99.90;;;;;;4988294;28;20208;-67
2023/11/29 05:59:26;;;;;;;10.77;8.27;;;2.80;99.90;;;;;;4990375;28;20454;-70
2023/11/29 06:01:54;;;;;;;12.73;8.13;;;2.80;99.90;;;;;;4992555;28;20213;-73
2023/11/29 06:04:21;;;;;;;12.40;8.50;;;2.80;99.90;;;;;;4996232;28;21180;-67
2023/11/29 06:06:47;;;;;;;12.87;8.97;;;2.80;99.90;;;;;;4994200;28;20434;-73
2023/11/29 06:09:14;;;;;;;11.87;8.00;;;2.90;99.90;;;;;;5000099;28;20435;-66
2023/11/29 06:11:40;;;;;;;12.47;8.83;;;2.90;99.90;;;;;;4994201;28;20928;-72
2023/11/29 06:14:06;;;;;;;17.73;9.43;;;2.90;99.90;;;;;;4994922;28;20419;-74
2023/11/29 06:16:33;;;;;;;12.33;8.80;;;2.90;99.90;;;;;;4995343;28;21037;-71
2023/11/29 06:18:59;;;;;;;13.70;8.67;;;2.90;99.90;;;;;;4994554;28;20244;-72
2023/11/29 06:21:25;;;;;;;12.97;9.70;;;3.00;99.90;;;;;;4995173;28;20427;-69
2023/11/29 06:23:51;;;;;;;14.73;8.90;;;3.00;99.90;;;;;;4991183;28;20449;-71
2023/11/29 06:26:18;;;;;;;13.73;8.43;;;2.90;99.90;;;;;;4997685;28;20202;-72
2023/11/29 06:28:44;;;;;;;13.73;8.83;;;2.90;99.90;;;;;;4993394;28;20187;-66
2023/11/29 06:31:10;;;;;;;16.40;10.30;;;2.90;99.90;;;;;;4997586;28;20437;-64
2023/11/29 06:33:35;;;;;;;13.17;9.97;;;3.00;99.90;;;;;;4989830;28;20435;-69
2023/11/29 06:36:02;;;;;;;14.30;9.00;;;3.10;99.90;;;;;;4994409;28;20290;-69
2023/11/29 06:38:28;;;;;;;13.53;9.20;;;3.00;99.90;;;;;;4993567;28;21235;-66
2023/11/29 06:40:54;;;;;;;15.40;8.87;;;3.00;99.90;;;;;;4986102;28;20430;-65
2023/11/29 06:43:20;;;;;;;12.00;9.33;;;3.00;99.90;;;;;;4987398;28;20650;-68
2023/11/29 06:45:49;;;;;;;12.50;8.20;;;3.00;99.90;;;;;;4985754;28;20473;-71
2023/11/29 06:48:15;;;;;;;15.07;9.80;;;3.00;99.90;;;;;;4993542;28;20464;-67
2023/11/29 06:50:42;;;;;;;12.77;8.33;;;3.00;99.90;;;;;;4992675;28;20479;-71
2023/11/29 06:53:08;;;;;;;12.67;8.93;;;3.00;99.90;;;;;;4997007;28;20499;-73
2023/11/29 06:55:34;;;;;;;10.87;8.33;;;3.00;99.90;;;;;;4993221;28;20423;-67
2023/11/29 06:58:00;;;;;;;15.03;9.63;;;3.00;99.90;;;;;;4985580;28;20448;-66
2023/11/29 07:00:26;;;;;;;16.20;9.80;;;3.10;99.90;;;;;;4994510;28;20661;-70
2023/11/29 07:02:52;;;;;;;14.10;9.03;;;3.10;99.90;;;;;;4987566;28;20999;-69
2023/11/29 07:05:17;;;;;;;12.03;8.83;;;3.00;99.90;;;;;;4981045;28;20486;-71
2023/11/29 07:07:44;;;;;;;14.13;9.73;;;3.00;99.90;;;;;;4984190;28;20512;-66
2023/11/29 07:10:10;;;;;;;17.40;7.97;;;3.00;99.90;;;;;;4991021;28;20220;-69
2023/11/29 07:12:36;;;;;;;16.10;9.13;;;3.10;99.90;;;;;;4986598;28;20464;-69
2023/11/29 07:15:02;;;;;;;11.97;8.70;;;3.10;99.90;;;;;;4970976;28;20255;-65
2023/11/29 07:17:27;;;;;;;14.40;8.33;;;3.10;99.90;;;;;;4989885;28;20842;-67
2023/11/29 07:19:53;;;;;;;12.50;9.07;;;3.00;99.90;;;;;;4988199;28;20583;-70
2023/11/29 07:22:24;;;;;;;14.10;9.07;;;3.00;99.90;;;;;;5000567;28;20180;-73
2023/11/29 07:24:50;;;;;;;11.03;7.80;;;3.00;99.90;;;;;;4996157;28;20780;-69
2023/11/29 07:27:15;;;;;;;11.63;8.53;;;3.10;99.90;;;;;;5000883;28;20467;-68
2023/11/29 07:29:41;;;;;;;12.17;8.73;;;3.00;99.90;;;;;;4997226;28;20442;-67
2023/11/29 07:32:07;;;;;;;12.63;8.07;;;2.90;99.90;;;;;;4996087;28;20183;-72
2023/11/29 07:34:33;;;;;;;12.07;8.83;;;3.00;99.90;;;;;;4997742;28;20687;-66
2023/11/29 07:36:59;;;;;;;10.13;8.43;;;3.00;99.90;;;;;;4995447;28;20218;-71
2023/11/29 07:39:27;;;;;;;13.90;9.37;;;3.00;99.90;;;;;;4996371;28;20422;-66
2023/11/29 07:41:53;;;;;;;13.57;8.67;;;2.90;99.90;;;;;;4996987;28;20186;-72
2023/11/29 07:44:20;;;;;;;13.30;9.40;;;2.90;99.90;;;;;;4997042;28;20466;-69
2023/11/29 07:46:46;;;;;;;12.90;8.17;;;3.00;99.90;;;;;;4994702;28;20936;-67
2023/11/29 07:49:15;;;;;;;11.63;9.00;;;3.00;99.90;;;;;;4990623;28;20444;-74
2023/11/29 07:51:45;;;;;;;15.20;9.77;;;3.00;99.90;;;;;;4990598;28;20187;-65
2023/11/29 07:54:11;;;;;;;11.07;9.33;;;3.10;99.90;;;;;;4990210;28;20443;-70
2023/11/29 07:56:36;;;;;;;12.10;9.03;;;3.10;99.90;;;;;;4991566;28;20426;-66
2023/11/29 07:59:02;;;;;;;10.73;8.40;;;3.10;99.90;;;;;;4989435;28;20788;-69
2023/11/29 08:01:28;;;;;;;12.80;10.00;;;3.10;99.90;;;;;;4991681;28;20179;-66
2023/11/29 08:03:53;;;;;;;10.43;9.00;;;3.20;99.90;;;;;;4990760;28;20274;-72
2023/11/29 08:06:20;;;;;;;13.60;9.20;;;3.20;99.90;;;;;;4991237;28;20594;-71
2023/11/29 08:08:47;;;;;;;11.77;8.90;;;3.20;99.90;;;;;;4995266;28;20194;-74
2023/11/29 08:11:12;;;;;;;13.50;10.30;;;3.10;99.90;;;;;;4991472;28;20438;-73
2023/11/29 08:13:38;;;;;;;13.17;8.70;;;3.10;99.90;;;;;;4992249;28;20431;-70
2023/11/29 08:16:05;;;;;;;10.87;8.37;;;3.10;99.90;;;;;;4990385;28;20184;-67
2023/11/29 08:18:31;;;;;;;12.70;9.57;;;3.10;99.90;;;;;;4991639;28;20595;-74
2023/11/29 08:20:58;;;;;;;11.60;7.97;;;3.10;99.90;;;;;;4973963;28;20513;-71
2023/11/29 08:23:23;;;;;;;12.27;8.90;;;3.10;99.90;;;;;;4991576;28;20180;-72
2023/11/29 08:25:49;;;;;;;9.60;8.13;;;3.20;99.90;;;;;;4991995;28;20474;-67
2023/11/29 08:28:15;;;;;;;11.33;8.77;;;3.20;99.90;;;;;;4990971;28;20195;-71
2023/11/29 08:30:41;;;;;;;11.53;8.60;;;3.10;99.90;;;;;;4992357;28;20423;-75
2023/11/29 08:33:07;;;;;;;10.50;8.57;;;3.20;99.90;;;;;;4990999;28;20202;-70
2023/11/29 08:35:33;;;;;;;12.77;8.70;;;3.20;99.90;;;;;;4991074;28;20192;-69
2023/11/29 08:37:58;;;;;;;10.33;8.10;;;3.20;99.90;;;;;;4991201;28;20437;-68
2023/11/29 08:40:24;;;;;;;11.53;8.70;;;3.30;99.90;;;;;;4989271;28;20202;-74
2023/11/29 08:42:50;;;;;;;9.90;7.57;;;3.30;99.90;;;;;;4990915;28;21054;-72
2023/11/29 08:45:16;;;;;;;9.83;8.60;;;3.40;99.90;;;;;;5091318;27;20219;-69
2023/11/29 08:47:41;;;;;;;9.40;8.27;;;3.30;99.90;;;;;;4991391;28;20242;-72
2023/11/29 08:50:07;;;;;;;9.87;8.73;;;3.40;99.90;;;;;;4990841;28;20183;-70
2023/11/29 08:52:33;;;;;;;9.73;7.93;;;3.30;99.90;;;;;;4991226;28;20180;-67
2023/11/29 08:54:59;;;;;;;11.87;9.23;;;3.20;99.90;;;;;;4990946;28;20426;-69
2023/11/29 08:57:25;;;;;;;11.43;10.17;;;3.20;99.90;;;;;;4991371;28;20179;-64
2023/11/29 08:59:51;;;;;;;10.83;8.47;;;3.30;99.90;;;;;;4990768;28;20488;-68
2023/11/29 09:02:21;;;;;;;12.23;8.70;;;3.30;99.90;;;;;;4990908;28;20430;-71
2023/11/29 09:04:48;;;;;;;12.90;10.07;;;3.40;99.90;;;;;;4991487;28;20469;-71
2023/11/29 09:07:14;;;;;;;12.10;9.20;;;3.30;99.90;;;;;;4991739;28;20435;-69
2023/11/29 09:09:47;;;;;;;10.60;8.70;;;3.40;99.90;;;;;;4993101;28;20484;-69
2023/11/29 09:12:12;;;;;;;13.03;9.87;;;3.30;99.90;;;;;;4992242;28;20303;-66
2023/11/29 09:14:39;;;;;;;11.67;9.97;;;3.30;99.90;;;;;;4991534;28;20491;-66
2023/11/29 09:17:05;;;;;;;17.47;9.80;;;3.30;99.90;;;;;;4991827;28;20453;-66
2023/11/29 09:19:34;;;;;;;13.33;10.40;;;3.30;99.90;;;;;;4991787;28;20443;-71
2023/11/29 09:22:03;;;;;;;9.70;8.70;;;3.40;99.90;;;;;;4991003;28;20461;-66
2023/11/29 09:24:30;;;;;;;11.53;10.20;;;3.20;99.90;;;;;;4992361;28;20827;-70
2023/11/29 09:26:55;;;;;;;10.00;8.90;;;3.30;99.90;;;;;;4991127;28;20518;-70
2023/11/29 09:29:25;;;;;;;11.30;9.00;;;3.40;99.90;;;;;;4993426;28;20514;-69
2023/11/29 09:31:52;;;;;;;10.13;9.03;;;3.30;99.90;;;;;;4991986;28;20236;-69
2023/11/29 09:34:17;;;;;;;10.87;8.97;;;3.40;99.90;;;;;;4992188;28;20442;-65
2023/11/29 09:36:44;;;;;;;10.07;8.73;;;3.40;99.90;;;;;;4992056;28;20499;-72
2023/11/29 09:39:14;;;;;;;9.63;8.63;;;3.40;99.90;;;;;;4991480;28;20187;-76
2023/11/29 09:41:40;;;;;;;10.20;8.63;;;3.50;99.90;;;;;;4992586;28;20430;-63
2023/11/29 09:44:06;;;;;;;9.93;8.93;;;3.50;99.90;;;;;;4990958;28;20990;-66
2023/11/29 09:46:32;;;;;;;11.57;8.60;;;3.50;99.90;;;;;;4992338;28;20184;-71
2023/11/29 09:49:02;;;;;;;9.90;8.50;;;3.40;99.90;;;;;;4992788;28;21098;-70
2023/11/29 09:51:27;;;;;;;11.07;9.00;;;3.50;99.90;;;;;;4993020;28;20423;-71
2023/11/29 09:53:53;;;;;;;11.70;8.63;;;3.60;99.90;;;;;;4991640;28;20505;-72
2023/11/29 09:56:19;;;;;;;8.40;7.50;;;3.50;99.90;;;;;;4993044;28;20590;-72
2023/11/29 09:58:45;;;;;;;10.00;7.97;;;3.60;99.90;;;;;;4992548;28;20191;-68
2023/11/29 10:01:14;;;;;;;11.13;9.50;;;3.70;99.90;;;;;;4992892;28;20493;-67
2023/11/29 10:03:40;;;;;;;9.27;8.27;;;3.60;99.90;;;;;;4992472;28;20457;-67
2023/11/29 10:06:06;;;;;;;9.93;7.83;;;3.60;99.90;;;;;;4991910;28;21035;-71
2023/11/29 10:08:32;;;;;;;10.47;8.50;;;3.60;99.90;;;;;;4993635;28;20827;-72
2023/11/29 10:11:00;;;;;;;9.57;8.63;;;3.60;99.90;;;;;;4992545;28;20426;-70
2023/11/29 10:13:26;;;;;;;11.87;8.50;;;3.60;99.90;;;;;;4993050;28;21027;-69
2023/11/29 10:15:54;;;;;;;9.70;8.70;;;3.60;99.90;;;;;;5006756;28;20492;-69
2023/11/29 10:18:21;;;;;;;13.30;8.77;;;3.70;99.90;;;;;;4993733;28;20904;-69
2023/11/29 10:20:49;;;;;;;10.53;9.43;;;3.80;99.90;;;;;;4975030;28;20431;-76
2023/11/29 10:23:15;;;;;;;13.17;8.97;;;3.80;99.90;;;;;;4991770;28;20524;-77
2023/11/29 10:25:44;;;;;;;11.90;9.00;;;3.80;99.90;;;;;;4992444;28;20565;-67
2023/11/29 10:28:11;;;;;;;11.30;9.50;;;3.80;99.90;;;;;;4993396;28;20183;-66
2023/11/29 10:30:38;;;;;;;11.93;9.23;;;3.80;99.90;;;;;;4991945;28;20461;-74
2023/11/29 10:33:06;;;;;;;9.17;8.27;;;3.90;99.90;;;;;;4991683;28;20503;-68
2023/11/29 10:35:35;;;;;;;9.27;8.37;;;3.90;99.90;;;;;;4976391;28;20533;-65
2023/11/29 10:38:12;;;;;;;9.87;8.63;;;3.90;99.90;;;;;;4992974;28;20434;-70
2023/11/29 10:40:44;;;;;;;11.80;8.63;;;3.90;99.90;;;;;;4991487;28;20821;-67
2023/11/29 10:43:23;;;;;;;11.67;8.33;;;3.90;99.90;;;;;;4993327;28;20434;-67
2023/11/29 10:45:53;;;;;;;14.47;9.60;;;3.80;99.90;;;;;;4992380;28;21001;-72
2023/11/29 10:48:26;;;;;;;9.07;7.60;;;3.80;99.90;;;;;;4992195;28;20462;-71
2023/11/29 10:50:53;;;;;;;9.07;7.40;;;3.80;99.90;;;;;;4992820;28;20902;-66
2023/11/29 10:53:19;;;;;;;10.07;8.40;;;3.70;99.90;;;;;;4992206;28;20765;-66
2023/11/29 10:55:47;;;;;;;10.20;7.97;;;3.80;99.90;;;;;;4992463;28;20530;-66
2023/11/29 10:58:21;;;;;;;11.17;9.30;;;3.80;99.90;;;;;;4993789;28;20433;-66
2023/11/29 11:00:47;;;;;;;8.80;7.90;;;3.80;99.90;;;;;;4992488;28;20540;-67
2023/11/29 11:03:41;;;;;;;13.47;8.67;;;3.90;99.90;;;;;;4994265;28;20518;-69
2023/11/29 11:06:41;;;;;;;10.77;7.90;;;3.90;99.90;;;;;;4991922;28;20847;-67
2023/11/29 11:09:31;;;;;;;11.13;8.90;;;3.90;99.90;;;;;;5000606;28;20462;-66
2023/11/29 11:12:00;;;;;;;12.80;9.53;;;3.80;99.90;;;;;;4992072;28;20438;-66
2023/11/29 11:14:31;;;;;;;10.93;8.90;;;3.70;99.90;;;;;;4994214;28;20860;-68
2023/11/29 11:17:01;;;;;;;10.47;8.60;;;3.80;99.90;;;;;;4991894;28;21199;-70
2023/11/29 11:19:34;;;;;;;11.13;8.03;;;3.90;99.90;;;;;;4993908;28;21268;-69
2023/11/29 11:22:25;;;;;;;10.73;8.70;;;3.90;99.90;;;;;;4992912;28;21016;-67
2023/11/29 11:25:00;;;;;;;11.63;8.50;;;3.80;99.90;;;;;;4993130;28;20552;-72
2023/11/29 11:27:34;;;;;;;13.90;8.43;;;3.90;99.90;;;;;;4994582;28;20423;-71
2023/11/29 11:30:19;;;;;;;13.30;9.30;;;3.90;99.90;;;;;;4993524;28;20425;-71
2023/11/29 11:32:49;;;;;;;10.20;9.00;;;4.00;99.90;;;;;;4992871;28;20508;-69
2023/11/29 11:37:48;;;;;;;12.40;9.40;;;4.00;99.90;;;;;;4992897;28;20435;-65
2023/11/29 11:40:15;;;;;;;11.73;8.73;;;4.00;99.90;;;;;;4992807;28;20455;-72
2023/11/29 11:42:42;;;;;;;11.40;9.20;;;4.00;99.90;;;;;;4992661;28;20427;-72
2023/11/29 11:45:09;;;;;;;10.60;9.50;;;4.10;99.90;;;;;;4993106;28;21144;-70
2023/11/29 11:47:35;;;;;;;11.93;8.63;;;4.10;99.90;;;;;;4991402;28;20433;-68
2023/11/29 11:50:02;;;;;;;10.50;9.40;;;4.10;99.90;;;;;;4993473;28;20434;-70
2023/11/29 11:52:28;;;;;;;11.33;9.47;;;4.10;99.90;;;;;;4993708;28;20433;-67
2023/11/29 11:54:53;;;;;;;10.43;8.97;;;4.10;99.90;;;;;;4995842;28;20917;-67
2023/11/29 11:57:19;;;;;;;13.00;9.70;;;4.20;99.90;;;;;;4997512;28;20642;-69
2023/11/29 11:59:45;;;;;;;9.67;8.77;;;4.20;99.90;;;;;;4995064;28;20191;-72
2023/11/29 12:02:10;;;;;;;12.50;9.73;;;4.10;99.90;;;;;;4997952;28;20266;-69
2023/11/29 12:04:36;;;;;;;10.60;9.03;;;4.20;99.90;;;;;;4995665;28;20224;-70
2023/11/29 12:07:07;;;;;;;9.83;8.27;;;4.20;99.90;;;;;;4995318;28;20216;-69
2023/11/29 12:09:34;;;;;;;10.80;7.50;;;4.20;99.90;;;;;;4997130;28;20283;-67
2023/11/29 12:12:10;;;;;;;10.20;8.17;;;4.20;99.90;;;;;;4996968;28;20490;-70
2023/11/29 12:14:39;;;;;;;11.63;8.80;;;4.20;99.90;;;;;;4994957;28;20435;-71
2023/11/29 12:17:05;;;;;;;8.30;7.50;;;4.20;99.90;;;;;;4996711;28;21215;-74
2023/11/29 12:19:32;;;;;;;11.40;8.47;;;4.20;99.90;;;;;;4997024;28;20548;-72
2023/11/29 12:21:58;;;;;;;12.37;8.50;;;4.20;99.90;;;;;;4995689;28;20239;-64
2023/11/29 12:24:24;;;;;;;8.40;7.00;;;4.20;99.90;;;;;;4996330;28;20492;-71
2023/11/29 12:26:54;;;;;;;8.63;7.73;;;4.30;99.90;;;;;;4993628;28;20426;-69
2023/11/29 12:29:20;;;;;;;9.77;8.60;;;4.30;99.90;;;;;;4998902;28;20209;-71
2023/11/29 12:31:48;;;;;;;10.80;8.43;;;4.30;99.90;;;;;;4995497;28;20424;-69
2023/11/29 12:34:14;;;;;;;11.43;8.33;;;4.30;99.90;;;;;;4997531;28;20207;-71
2023/11/29 12:36:45;;;;;;;9.23;8.30;;;4.30;99.90;;;;;;4995758;28;20438;-64
2023/11/29 12:39:11;;;;;;;15.13;10.40;;;4.30;99.90;;;;;;4997391;28;20434;-66
2023/11/29 12:41:36;;;;;;;10.40;9.30;;;4.30;99.90;;;;;;4995294;28;20932;-69
2023/11/29 12:44:03;;;;;;;12.00;10.10;;;4.30;99.90;;;;;;4996034;28;20841;-66
2023/11/29 12:46:28;;;;;;;12.13;9.80;;;4.30;99.90;;;;;;4998246;28;20190;-69
2023/11/29 12:48:54;;;;;;;10.63;9.43;;;4.40;99.90;;;;;;4996502;28;20428;-70
2023/11/29 12:51:19;;;;;;;14.73;10.10;;;4.30;99.90;;;;;;4997262;28;20180;-73